Austin, Texas
Traffic Map
Current Weather Conditions
Austin, Texas


Feels Like: -1°
Wind Chill: -1° Ceiling:
Heat Index: Visibility: 10mi
Dew Point: -7° Wind: 5mph
Humidity: 56% Direction: ° ()
Pressure: 30.32in Gusts: 0mph
Raw Report DataKATT 271051Z AUTO VRB04KT 10SM 01/M07 A3032 RMK AO2 SLP276 T00111067 $
Traffic Incident Summary
Active as of:
Severity:
Category:
InformationThere was an issue retrieving the traffic information for this location. Please try a different location or try again shortly.
Advertisements
Track Severe Weather on mobile